Huvudsida
METAR-TAF:

METAR-TAF

Flygplatser :

Stockholm Skavsta Airport

Stockholm-Skavsta, Sverige

latitud: 58-47N, longitud: 016-55E, höjd: 43 m

Aktuellt väderrapport

Denna rapport gjordes för 37 minuter sedan, klockan 22:20 UTC
Vind 6 kt från syd
Temperatur 3°C
Fuktighet 93%
Tryck 1010 hPa
Sikt 10 km eller mer
Inga moln under 1 500 m eller inga cumulonimbus

METAR: ESKN 112220Z 17006KT CAVOK 03/02 Q1010 R08/290195

Tid: 23:57 (22:57 UTC)

Väderprognos

Denna rapport gjordes för 5 timmar och 27 minuter sedan, klockan 17:30 UTC
Prognos gäller från 11 kl. 18 UTC till 12 kl. 18 UTC
Vind 7 kt från syd
Sikt 10 km eller mer
Få moln på en höjd av 900 ft
Brutna moln på en höjd av 2000 ft
Sannolikhet 40%
från 11 kl. 18 UTC till 11 kl. 20 UTC
Brutna moln på en höjd av 900 ft
Temporärt
från 12 kl. 11 UTC till 12 kl. 18 UTC
Sikt: 4000 m
Brutna moln på en höjd av 800 ft
regn

TAF: ESKN 111730Z 1118/1218 17007KT 9999 FEW009 BKN020 PROB40 1118/1120 BKN009 TEMPO 1211/1218 4000 RA BKN008

Aktuella väderrapporter och prognoser från 4000 flygplatser (METAR- och TAF-rapporter).

De tillgängliga stationerna syns som gula och röda prickar på kartan.

För musen över prickarna för att se namnen på stationerna.

Klicka sedan för att få väderrapporter och prognoser.

För att ändra kartan: Klicka på de gröna knapparna med ett svart kors på för att zooma in; den gröna knappen med ett streck på för att zooma ut; eller på de gröna pilarna för angränsande kartor.


METAR-TAF: